Britt, MN (55710)

5:43 PM CST on February 11, 2016 (GMT -0600)
Cook Municipal | | Change Station
CLOSE
Current Station
Airport
Location: Cook,
Elevation: 1325 ft
Nearby Weather Stations
Active Advisory: Wind Chill Advisory

Elev 1325 ft 47.82 °N, 92.69 °W | Updated 8 minutes ago

Overcast
Overcast
10 °F
Feels Like 1 °F
N
6
Wind Variable Wind from WSW

Today
High -- | Low -- °F
--% Chance of Precip.
Yesterday
High -- | Low -- °F
Precip. -- in
Pressure 30.11 in
Visibility 10.0 miles
Clouds Overcast 4800 ft
Windchill 1 °F
Dew Point -4 °F
Humidity 52%
Rainfall 0.00 in
Snow Depth Not available.
7:23 AM 5:26 PM
Waxing Crescent, 15% visible
METAR KCQM 112335Z AUTO 25005KT 10SM OVC048 M12/M20 A3011 RMK AO2
Pressure 30.11 in
Visibility 10.0 miles
Clouds Overcast 4800 ft
Windchill 1 °F
Dew Point -4 °F
Humidity 52%
Rainfall 0.00 in
Snow Depth Not available.
7:23 AM 5:26 PM
Waxing Crescent, 15% visible
METAR KCQM 112335Z AUTO 25005KT 10SM OVC048 M12/M20 A3011 RMK AO2

10-Day Weather Forecast

Almanac

Astronomy

Feb. 11, 2016 Rise Set
Actual Time
Civil Twilight
Nautical Twilight
Astronomical Twilight
Moon
Length of Visible Light
Length of Day
Tomorrow will be .
, % of the Moon is Illuminated

Today's Extremes

State Highs State Lows

Community

WunderPhotos

Upload Photos

1,892,180 photos uploaded!

WunderBlog® & News

Nearby

Air Quality

  Air Quality AQ Index Pollutant
Not available.

Snow Depth

Station Depth Elevation

Earthquake Activity

City Distance Mag. Time & Date
Minimum magnitude displayed is 2.5.

Coastal Water Temperatures

Place Temperature

Stations

Nearby Weather Stations

Station Location Temp. Windchill Dew Point Humidity Wind Precip. Elev Updated Type
                   

Watches & Warnings

Wind Chill Advisory
Issued: 1:34 PM CST Feb. 11, 2016 – National Weather Service

... Wind Chill Advisory in effect from midnight tonight to noon
CST Friday...

The National Weather Service in Duluth has issued a Wind Chill
Advisory... which is in effect from midnight tonight to noon CST
Friday.

* Wind chill values... 25 below to 35 below zero.

* Sustained winds... northwest 10 to 15 mph.

* Wind gusts... 20 to 25 mph... especially late tonight and Friday
morning.

* Frost bite time... 20 to 30 minutes on exposed skin.

Precautionary/preparedness actions...

A Wind Chill Advisory means that very cold air and winds will
combine to generate very cold wind chills. This may result in
hypothermia... and frost bite is possible if exposed skin is not
covered. If you venture outdoors... make sure you wear a hat and
gloves... and cover exposed skin exposed to the wind.